KHIB/HIB METAR and TAF weather

Enter ICAO airport designator
Station Type Date Time Source
KHIB METAR 2019/12/13 03:02 UTC NOAA

KHIB 130302Z AUTO 03004KT 7SM BKN013 OVC020 M11/M13 A3001 RMK AO2 T11061133


Station Type Date Time Source
KHIB Decoded METAR 2019/12/13 03:02 UTC NOAA

CHISHOLM-HIBBING AIRPORT, MN, United States (KHIB) 47-23N 92-50W 412M
Dec 12, 2019 - 10:02 PM EST / 2019.12.13 0302 UTC
Wind: from the NNE (030 degrees) at 5 MPH (4 KT):0
Visibility: 7 mile(s):0
Sky conditions: overcast
Temperature: 12.9 F (-10.6 C)
Windchill: 5 F (-15 C):1
Dew Point: 8.1 F (-13.3 C)
Relative Humidity: 80%
Pressure (altimeter): 30.01 in. Hg (1016 hPa)
ob: KHIB 130302Z AUTO 03004KT 7SM BKN013 OVC020 M11/M13 A3001 RMK AO2 T11061133
cycle: 3

Station Type Date Time Source
KHIB TAF 2019/12/12 18:36 UTC NOAA

TAF KHIB 121735Z 1218/1318 06009KT 6SM -SN SCT025 BKN040
FM121900 06008KT P6SM SCT040
FM122100 04007KT P6SM BKN020
FM130400 VRB03KT P6SM VCSH BKN018
FM131700 13006KT 6SM -SN OVC015

Example: see airport list